Briefing drone pour Arpajon-sur-cere

Rechercher une autre localisation

Conditions de vol :


Nous sommes le : Lundi 19 octobre 2020
Il est 21:10 UTC (23:10 LT)

Lever de soleil : 05:44 UTC (07:44 LT)
Coucher de soleil : 17:25 UTC (19:25 LT)

Météo

L'essentiel des conditions de vol

VIGILANCE MÉTÉO FRANCE - Cantal (15)
Vigilance Jaune : Vent violent
METAR de LFLW
LFLW 192100Z AUTO 11012KT CAVOK 12/08 Q1017

Date d'émission: 19/10/2020
Heure d'émission: 21:00 UTC
Vent: 110° pour 12 KT (22 km/h)
Visibilité horizontale: > 10 km
Plafond : Plafond et visibilité OK (CAVOK)
Température: 12 °C
Point de rosée: 8 °C
Humidité: 77%
Pression (QNH): 1017 hPa
Prévision 24h pour Aurillac (1 km)
Vent : 138° pour 7 KT (25 km/h)
Temperature Maxi: 12 °C
Temperature Min: 12 °C
Humidité : 76%
Condition : Couvert



Warning: count(): Parameter must be an array or an object that implements Countable in /homepages/6/d509196549/htdocs/droneoxygene/briefing.php on line 743
WEBCAM POUR ARPAJON-SUR-CERE

Réglementation

Voler en sécurité

CARTES AERONAUTIQUE 1/500.000
CARTES VAC (LFLW)
SUP AIP




Chargement des AIP...
NOTAM (ARPAJON-SUR-CERE + Terrain à proximité / FIR )




Chargement des NOTAMS...
CONTACT PREFECTURE 15


Avertissement : Les données mises à disposition sont indicatives. Oxygène Drone ne pourra être tenu responsable de dégâts causés aux biens et aux personnes.